sensor_id;sensor_type;location;lat;lon;timestamp;pressure;altitude;pressure_sealevel;temperature;humidity
12676;BME280;63820;65.654;21.944;2023-02-26T00:01:41;101220.34;;;-6.28;100.00
12676;BME280;63820;65.654;21.944;2023-02-26T00:04:25;101227.19;;;-6.23;100.00
12676;BME280;63820;65.654;21.944;2023-02-26T00:07:09;101237.38;;;-6.22;100.00
12676;BME280;63820;65.654;21.944;2023-02-26T00:09:54;101241.56;;;-6.24;100.00
12676;BME280;63820;65.654;21.944;2023-02-26T00:12:39;101246.81;;;-6.18;100.00
12676;BME280;63820;65.654;21.944;2023-02-26T00:15:23;101252.03;;;-6.13;100.00
12676;BME280;63820;65.654;21.944;2023-02-26T00:18:12;101261.59;;;-6.06;100.00
12676;BME280;63820;65.654;21.944;2023-02-26T00:20:58;101263.53;;;-5.99;100.00
12676;BME280;63820;65.654;21.944;2023-02-26T00:23:43;101266.81;;;-6.02;100.00
12676;BME280;63820;65.654;21.944;2023-02-26T00:26:29;101272.91;;;-5.97;100.00
12676;BME280;63820;65.654;21.944;2023-02-26T00:29:14;101269.06;;;-5.85;100.00
12676;BME280;63820;65.654;21.944;2023-02-26T00:31:58;101260.06;;;-5.77;100.00
12676;BME280;63820;65.654;21.944;2023-02-26T00:34:44;101266.91;;;-5.75;100.00
12676;BME280;63820;65.654;21.944;2023-02-26T00:43:26;101278.72;;;-5.75;100.00
12676;BME280;63820;65.654;21.944;2023-02-26T00:46:47;101275.16;;;-5.80;100.00
12676;BME280;63820;65.654;21.944;2023-02-26T00:55:55;101286.38;;;-5.74;100.00
12676;BME280;63820;65.654;21.944;2023-02-26T00:58:39;101271.34;;;-5.69;100.00
12676;BME280;63820;65.654;21.944;2023-02-26T01:01:23;101296.13;;;-5.37;100.00
12676;BME280;63820;65.654;21.944;2023-02-26T01:04:08;101301.25;;;-5.35;100.00
12676;BME280;63820;65.654;21.944;2023-02-26T01:06:54;101294.56;;;-5.33;100.00
12676;BME280;63820;65.654;21.944;2023-02-26T01:09:39;101301.19;;;-5.37;100.00
12676;BME280;63820;65.654;21.944;2023-02-26T01:12:23;101312.47;;;-5.29;100.00
12676;BME280;63820;65.654;21.944;2023-02-26T01:15:09;101315.00;;;-5.29;100.00
12676;BME280;63820;65.654;21.944;2023-02-26T01:18:04;101321.00;;;-5.27;100.00
12676;BME280;63820;65.654;21.944;2023-02-26T01:20:53;101327.91;;;-5.22;100.00
12676;BME280;63820;65.654;21.944;2023-02-26T01:23:42;101333.84;;;-5.22;100.00
12676;BME280;63820;65.654;21.944;2023-02-26T01:26:29;101337.31;;;-5.18;100.00
12676;BME280;63820;65.654;21.944;2023-02-26T01:29:13;101333.94;;;-5.17;100.00
12676;BME280;63820;65.654;21.944;2023-02-26T01:49:48;101338.78;;;-5.25;100.00
12676;BME280;63820;65.654;21.944;2023-02-26T01:56:07;101332.75;;;-5.29;100.00
12676;BME280;63820;65.654;21.944;2023-02-26T01:58:53;101341.16;;;-5.30;100.00
12676;BME280;63820;65.654;21.944;2023-02-26T02:01:38;101333.34;;;-5.36;100.00
12676;BME280;63820;65.654;21.944;2023-02-26T02:04:23;101344.47;;;-5.32;100.00
12676;BME280;63820;65.654;21.944;2023-02-26T02:07:10;101325.53;;;-5.42;100.00
12676;BME280;63820;65.654;21.944;2023-02-26T02:09:54;101338.38;;;-5.37;100.00
12676;BME280;63820;65.654;21.944;2023-02-26T02:25:43;101334.16;;;-5.37;100.00
12676;BME280;63820;65.654;21.944;2023-02-26T02:28:44;101331.84;;;-5.05;100.00
12676;BME280;63820;65.654;21.944;2023-02-26T02:31:39;101332.09;;;-4.98;100.00
12676;BME280;63820;65.654;21.944;2023-02-26T02:34:34;101333.56;;;-5.04;100.00
12676;BME280;63820;65.654;21.944;2023-02-26T02:40:10;101333.19;;;-5.40;100.00
12676;BME280;63820;65.654;21.944;2023-02-26T02:43:03;101340.53;;;-5.48;100.00
12676;BME280;63820;65.654;21.944;2023-02-26T02:45:53;101346.53;;;-5.68;100.00
12676;BME280;63820;65.654;21.944;2023-02-26T02:48:46;101363.13;;;-5.76;100.00
12676;BME280;63820;65.654;21.944;2023-02-26T02:51:36;101377.06;;;-5.65;100.00
12676;BME280;63820;65.654;21.944;2023-02-26T02:54:33;101383.28;;;-5.57;100.00
12676;BME280;63820;65.654;21.944;2023-02-26T02:57:23;101388.25;;;-5.60;100.00
12676;BME280;63820;65.654;21.944;2023-02-26T03:00:10;101380.28;;;-5.69;100.00
12676;BME280;63820;65.654;21.944;2023-02-26T03:05:53;101385.25;;;-5.72;100.00
12676;BME280;63820;65.654;21.944;2023-02-26T03:08:39;101398.66;;;-5.75;100.00
12676;BME280;63820;65.654;21.944;2023-02-26T03:11:26;101386.88;;;-5.74;100.00
12676;BME280;63820;65.654;21.944;2023-02-26T03:14:12;101395.16;;;-5.78;100.00
12676;BME280;63820;65.654;21.944;2023-02-26T03:20:18;101412.44;;;-5.68;100.00
12676;BME280;63820;65.654;21.944;2023-02-26T03:23:10;101418.59;;;-5.62;100.00
12676;BME280;63820;65.654;21.944;2023-02-26T03:26:02;101425.56;;;-5.56;100.00
12676;BME280;63820;65.654;21.944;2023-02-26T03:28:55;101427.13;;;-5.60;100.00
12676;BME280;63820;65.654;21.944;2023-02-26T03:31:56;101425.44;;;-5.59;100.00
12676;BME280;63820;65.654;21.944;2023-02-26T03:34:46;101431.50;;;-5.55;100.00
12676;BME280;63820;65.654;21.944;2023-02-26T03:37:38;101422.91;;;-5.59;100.00
12676;BME280;63820;65.654;21.944;2023-02-26T03:40:33;101426.47;;;-5.54;100.00
12676;BME280;63820;65.654;21.944;2023-02-26T03:43:26;101435.75;;;-5.54;100.00
12676;BME280;63820;65.654;21.944;2023-02-26T03:46:18;101432.19;;;-5.60;100.00
12676;BME280;63820;65.654;21.944;2023-02-26T03:49:09;101450.78;;;-5.59;100.00
12676;BME280;63820;65.654;21.944;2023-02-26T03:51:58;101449.00;;;-5.62;100.00
12676;BME280;63820;65.654;21.944;2023-02-26T03:54:52;101458.50;;;-5.56;100.00
12676;BME280;63820;65.654;21.944;2023-02-26T03:57:38;101451.59;;;-5.60;100.00
12676;BME280;63820;65.654;21.944;2023-02-26T04:00:23;101451.66;;;-5.58;100.00
12676;BME280;63820;65.654;21.944;2023-02-26T04:03:15;101449.19;;;-5.57;100.00
12676;BME280;63820;65.654;21.944;2023-02-26T04:06:02;101452.50;;;-5.58;100.00
12676;BME280;63820;65.654;21.944;2023-02-26T04:08:47;101451.59;;;-5.60;100.00
12676;BME280;63820;65.654;21.944;2023-02-26T04:11:32;101446.41;;;-5.63;100.00
12676;BME280;63820;65.654;21.944;2023-02-26T04:14:17;101464.22;;;-5.62;100.00
12676;BME280;63820;65.654;21.944;2023-02-26T04:17:02;101470.25;;;-5.58;100.00
12676;BME280;63820;65.654;21.944;2023-02-26T04:19:46;101462.66;;;-5.58;100.00
12676;BME280;63820;65.654;21.944;2023-02-26T04:22:30;101449.75;;;-5.64;100.00
12676;BME280;63820;65.654;21.944;2023-02-26T04:25:14;101451.47;;;-5.63;100.00
12676;BME280;63820;65.654;21.944;2023-02-26T04:27:58;101457.41;;;-5.63;100.00
12676;BME280;63820;65.654;21.944;2023-02-26T04:30:42;101465.06;;;-5.61;100.00
12676;BME280;63820;65.654;21.944;2023-02-26T04:33:26;101464.22;;;-5.62;100.00
12676;BME280;63820;65.654;21.944;2023-02-26T04:36:10;101453.22;;;-5.62;100.00
12676;BME280;63820;65.654;21.944;2023-02-26T04:38:55;101462.53;;;-5.61;100.00
12676;BME280;63820;65.654;21.944;2023-02-26T04:41:39;101464.44;;;-5.55;100.00
12676;BME280;63820;65.654;21.944;2023-02-26T04:44:23;101457.94;;;-5.49;100.00
12676;BME280;63820;65.654;21.944;2023-02-26T04:47:08;101465.41;;;-5.52;100.00
12676;BME280;63820;65.654;21.944;2023-02-26T04:49:52;101456.91;;;-5.54;100.00
12676;BME280;63820;65.654;21.944;2023-02-26T04:52:37;101454.88;;;-5.40;100.00
12676;BME280;63820;65.654;21.944;2023-02-26T04:55:21;101453.22;;;-5.40;100.00
12676;BME280;63820;65.654;21.944;2023-02-26T04:58:06;101452.41;;;-5.39;100.00
12676;BME280;63820;65.654;21.944;2023-02-26T05:00:51;101450.38;;;-5.47;100.00
12676;BME280;63820;65.654;21.944;2023-02-26T05:03:39;101458.75;;;-5.50;100.00
12676;BME280;63820;65.654;21.944;2023-02-26T05:06:24;101470.31;;;-5.56;100.00
12676;BME280;63820;65.654;21.944;2023-02-26T05:09:08;101460.25;;;-5.55;100.00
12676;BME280;63820;65.654;21.944;2023-02-26T05:11:52;101461.72;;;-5.60;100.00
12676;BME280;63820;65.654;21.944;2023-02-26T05:14:36;101467.97;;;-5.52;100.00
12676;BME280;63820;65.654;21.944;2023-02-26T05:17:20;101465.94;;;-5.61;100.00
12676;BME280;63820;65.654;21.944;2023-02-26T05:20:05;101475.97;;;-5.64;100.00
12676;BME280;63820;65.654;21.944;2023-02-26T05:22:50;101470.13;;;-5.61;100.00
12676;BME280;63820;65.654;21.944;2023-02-26T05:25:34;101473.84;;;-5.53;100.00
12676;BME280;63820;65.654;21.944;2023-02-26T05:28:18;101476.59;;;-5.47;100.00
12676;BME280;63820;65.654;21.944;2023-02-26T05:31:02;101474.63;;;-5.54;100.00
12676;BME280;63820;65.654;21.944;2023-02-26T05:33:47;101480.50;;;-5.55;100.00
12676;BME280;63820;65.654;21.944;2023-02-26T05:36:30;101478.56;;;-5.62;100.00
12676;BME280;63820;65.654;21.944;2023-02-26T05:39:15;101484.38;;;-5.65;100.00
12676;BME280;63820;65.654;21.944;2023-02-26T05:41:59;101488.44;;;-5.68;100.00
12676;BME280;63820;65.654;21.944;2023-02-26T05:44:43;101491.72;;;-5.71;100.00
12676;BME280;63820;65.654;21.944;2023-02-26T05:47:27;101490.19;;;-5.67;100.00
12676;BME280;63820;65.654;21.944;2023-02-26T05:50:11;101485.84;;;-5.70;100.00
12676;BME280;63820;65.654;21.944;2023-02-26T05:52:56;101485.00;;;-5.70;100.00
12676;BME280;63820;65.654;21.944;2023-02-26T05:55:40;101493.63;;;-5.65;100.00
12676;BME280;63820;65.654;21.944;2023-02-26T05:58:24;101488.34;;;-5.71;100.00
12676;BME280;63820;65.654;21.944;2023-02-26T06:01:08;101498.69;;;-5.65;100.00
12676;BME280;63820;65.654;21.944;2023-02-26T06:03:52;101492.16;;;-5.60;100.00
12676;BME280;63820;65.654;21.944;2023-02-26T06:06:37;101497.50;;;-5.52;100.00
12676;BME280;63820;65.654;21.944;2023-02-26T06:09:21;101498.59;;;-5.46;100.00
12676;BME280;63820;65.654;21.944;2023-02-26T06:12:06;101491.06;;;-5.44;100.00
12676;BME280;63820;65.654;21.944;2023-02-26T06:14:50;101499.88;;;-5.35;100.00
12676;BME280;63820;65.654;21.944;2023-02-26T06:17:35;101499.25;;;-5.29;100.00
12676;BME280;63820;65.654;21.944;2023-02-26T06:20:20;101495.03;;;-5.29;100.00
12676;BME280;63820;65.654;21.944;2023-02-26T06:23:04;101501.78;;;-5.29;100.00
12676;BME280;63820;65.654;21.944;2023-02-26T06:25:52;101496.75;;;-5.28;100.00
12676;BME280;63820;65.654;21.944;2023-02-26T06:28:37;101501.91;;;-5.26;100.00
12676;BME280;63820;65.654;21.944;2023-02-26T06:31:20;101506.47;;;-5.16;100.00
12676;BME280;63820;65.654;21.944;2023-02-26T06:34:05;101504.03;;;-5.13;100.00
12676;BME280;63820;65.654;21.944;2023-02-26T06:36:48;101499.78;;;-5.14;100.00
12676;BME280;63820;65.654;21.944;2023-02-26T06:39:33;101489.44;;;-5.20;100.00
12676;BME280;63820;65.654;21.944;2023-02-26T06:42:17;101499.03;;;-5.11;100.00
12676;BME280;63820;65.654;21.944;2023-02-26T06:45:02;101491.75;;;-5.02;100.00
12676;BME280;63820;65.654;21.944;2023-02-26T06:47:47;101495.97;;;-5.03;100.00
12676;BME280;63820;65.654;21.944;2023-02-26T06:50:31;101492.56;;;-5.03;100.00
12676;BME280;63820;65.654;21.944;2023-02-26T06:53:15;101501.75;;;-4.83;100.00
12676;BME280;63820;65.654;21.944;2023-02-26T06:55:59;101501.28;;;-4.73;100.00
12676;BME280;63820;65.654;21.944;2023-02-26T06:58:44;101492.25;;;-4.65;100.00
12676;BME280;63820;65.654;21.944;2023-02-26T07:01:28;101484.56;;;-4.66;100.00
12676;BME280;63820;65.654;21.944;2023-02-26T07:04:14;101484.25;;;-4.51;100.00
12676;BME280;63820;65.654;21.944;2023-02-26T07:06:58;101489.38;;;-4.24;100.00
12676;BME280;63820;65.654;21.944;2023-02-26T07:09:42;101489.38;;;-4.24;100.00
12676;BME280;63820;65.654;21.944;2023-02-26T07:12:26;101491.66;;;-4.32;100.00
12676;BME280;63820;65.654;21.944;2023-02-26T07:15:10;101496.94;;;-4.26;100.00
12676;BME280;63820;65.654;21.944;2023-02-26T07:17:54;101477.00;;;-4.14;100.00
12676;BME280;63820;65.654;21.944;2023-02-26T07:20:40;101485.50;;;-3.86;100.00
12676;BME280;63820;65.654;21.944;2023-02-26T07:23:25;101494.13;;;-4.08;100.00
12676;BME280;63820;65.654;21.944;2023-02-26T07:26:09;101497.25;;;-3.63;100.00
12676;BME280;63820;65.654;21.944;2023-02-26T07:28:54;101505.03;;;-3.30;100.00
12676;BME280;63820;65.654;21.944;2023-02-26T07:31:38;101504.59;;;-3.45;100.00
12676;BME280;63820;65.654;21.944;2023-02-26T07:34:22;101498.50;;;-3.22;100.00
12676;BME280;63820;65.654;21.944;2023-02-26T07:37:06;101502.72;;;-3.22;100.00
12676;BME280;63820;65.654;21.944;2023-02-26T07:39:50;101504.69;;;-3.42;100.00
12676;BME280;63820;65.654;21.944;2023-02-26T07:42:34;101502.00;;;-3.18;100.00
12676;BME280;63820;65.654;21.944;2023-02-26T07:45:18;101500.69;;;-1.35;100.00
12676;BME280;63820;65.654;21.944;2023-02-26T07:48:05;101503.06;;;0.45;100.00
12676;BME280;63820;65.654;21.944;2023-02-26T07:50:51;101509.34;;;1.35;85.61
12676;BME280;63820;65.654;21.944;2023-02-26T07:53:36;101510.84;;;1.17;78.61
12676;BME280;63820;65.654;21.944;2023-02-26T07:56:20;101509.53;;;1.53;76.91
12676;BME280;63820;65.654;21.944;2023-02-26T07:59:04;101509.91;;;1.89;78.84
12676;BME280;63820;65.654;21.944;2023-02-26T08:01:48;101503.34;;;2.31;71.89
12676;BME280;63820;65.654;21.944;2023-02-26T08:04:33;101515.41;;;2.41;76.84
12676;BME280;63820;65.654;21.944;2023-02-26T08:07:17;101520.84;;;2.90;68.53
12676;BME280;63820;65.654;21.944;2023-02-26T08:10:02;101508.38;;;2.16;72.82
12676;BME280;63820;65.654;21.944;2023-02-26T08:12:47;101515.19;;;2.08;75.02
12676;BME280;63820;65.654;21.944;2023-02-26T08:15:31;101525.88;;;2.69;69.59
12676;BME280;63820;65.654;21.944;2023-02-26T08:18:15;101514.28;;;2.03;67.32
12676;BME280;63820;65.654;21.944;2023-02-26T08:21:00;101514.59;;;2.48;71.25
12676;BME280;63820;65.654;21.944;2023-02-26T08:23:44;101516.81;;;3.73;69.75
12676;BME280;63820;65.654;21.944;2023-02-26T08:26:28;101517.03;;;5.94;62.92
12676;BME280;63820;65.654;21.944;2023-02-26T08:29:12;101527.19;;;8.23;55.23
12676;BME280;63820;65.654;21.944;2023-02-26T08:31:57;101515.91;;;10.63;47.62
12676;BME280;63820;65.654;21.944;2023-02-26T08:34:41;101518.41;;;8.79;42.32
12676;BME280;63820;65.654;21.944;2023-02-26T08:37:25;101511.41;;;7.82;46.44
12676;BME280;63820;65.654;21.944;2023-02-26T08:40:10;101520.84;;;7.27;49.25
12676;BME280;63820;65.654;21.944;2023-02-26T08:42:54;101524.16;;;7.35;49.08
12676;BME280;63820;65.654;21.944;2023-02-26T08:45:38;101523.63;;;7.74;44.99
12676;BME280;63820;65.654;21.944;2023-02-26T08:48:23;101524.44;;;7.78;48.49
12676;BME280;63820;65.654;21.944;2023-02-26T08:51:09;101528.06;;;8.22;49.71
12676;BME280;63820;65.654;21.944;2023-02-26T08:53:54;101523.53;;;9.64;44.06
12676;BME280;63820;65.654;21.944;2023-02-26T08:56:38;101529.72;;;10.97;43.53
12676;BME280;63820;65.654;21.944;2023-02-26T08:59:23;101517.31;;;14.27;36.66
12676;BME280;63820;65.654;21.944;2023-02-26T09:02:12;101524.97;;;12.25;39.28
12676;BME280;63820;65.654;21.944;2023-02-26T09:04:56;101531.50;;;12.86;37.56
12676;BME280;63820;65.654;21.944;2023-02-26T09:07:41;101532.75;;;14.33;36.17
12676;BME280;63820;65.654;21.944;2023-02-26T09:10:26;101541.78;;;13.39;35.03
12676;BME280;63820;65.654;21.944;2023-02-26T09:13:10;101532.72;;;15.15;34.37
12676;BME280;63820;65.654;21.944;2023-02-26T09:15:55;101540.34;;;13.75;35.13
12676;BME280;63820;65.654;21.944;2023-02-26T09:18:40;101544.72;;;13.06;36.35
12676;BME280;63820;65.654;21.944;2023-02-26T09:21:24;101548.66;;;12.93;36.17
12676;BME280;63820;65.654;21.944;2023-02-26T09:24:08;101550.72;;;10.59;39.76
12676;BME280;63820;65.654;21.944;2023-02-26T09:26:52;101550.94;;;10.49;41.18
12676;BME280;63820;65.654;21.944;2023-02-26T09:29:36;101538.31;;;9.99;42.31
12676;BME280;63820;65.654;21.944;2023-02-26T09:32:21;101537.25;;;9.32;43.26
12676;BME280;63820;65.654;21.944;2023-02-26T09:35:05;101511.47;;;12.12;38.70
12676;BME280;63820;65.654;21.944;2023-02-26T09:37:50;101532.91;;;12.47;36.53
12676;BME280;63820;65.654;21.944;2023-02-26T09:40:47;101523.94;;;11.74;37.97
12676;BME280;63820;65.654;21.944;2023-02-26T09:49:57;101536.97;;;9.04;43.63
12676;BME280;63820;65.654;21.944;2023-02-26T09:55:46;101531.44;;;9.21;42.76
12676;BME280;63820;65.654;21.944;2023-02-26T09:58:36;101529.25;;;6.72;49.74
12676;BME280;63820;65.654;21.944;2023-02-26T10:01:33;101523.56;;;4.97;53.04
12676;BME280;63820;65.654;21.944;2023-02-26T10:07:40;101525.34;;;3.49;59.23
12676;BME280;63820;65.654;21.944;2023-02-26T10:10:41;101526.97;;;3.21;66.49
12676;BME280;63820;65.654;21.944;2023-02-26T10:16:15;101520.84;;;5.21;62.46
12676;BME280;63820;65.654;21.944;2023-02-26T10:19:05;101521.31;;;5.97;58.15
12676;BME280;63820;65.654;21.944;2023-02-26T10:21:56;101516.94;;;6.06;55.70
12676;BME280;63820;65.654;21.944;2023-02-26T10:24:49;101510.91;;;6.09;55.45
12676;BME280;63820;65.654;21.944;2023-02-26T10:27:45;101522.41;;;5.56;55.51
12676;BME280;63820;65.654;21.944;2023-02-26T10:30:45;101513.06;;;5.34;57.50
12676;BME280;63820;65.654;21.944;2023-02-26T10:33:46;101515.22;;;7.59;51.64
12676;BME280;63820;65.654;21.944;2023-02-26T10:46:17;101516.97;;;9.86;45.19
12676;BME280;63820;65.654;21.944;2023-02-26T10:49:30;101509.41;;;10.12;45.77
12676;BME280;63820;65.654;21.944;2023-02-26T10:52:23;101496.94;;;7.06;49.66
12676;BME280;63820;65.654;21.944;2023-02-26T10:55:34;101508.13;;;6.26;53.26
12676;BME280;63820;65.654;21.944;2023-02-26T10:58:23;101513.38;;;4.47;58.50
12676;BME280;63820;65.654;21.944;2023-02-26T11:01:17;101497.72;;;2.91;68.80
12676;BME280;63820;65.654;21.944;2023-02-26T11:04:13;101496.38;;;2.07;79.92
12676;BME280;63820;65.654;21.944;2023-02-26T11:07:02;101497.88;;;1.85;86.91
12676;BME280;63820;65.654;21.944;2023-02-26T11:09:48;101506.03;;;2.46;81.85
12676;BME280;63820;65.654;21.944;2023-02-26T11:12:32;101503.69;;;2.83;76.48
12676;BME280;63820;65.654;21.944;2023-02-26T11:15:20;101493.50;;;3.01;80.61
12676;BME280;63820;65.654;21.944;2023-02-26T11:18:13;101494.44;;;4.69;65.82
12676;BME280;63820;65.654;21.944;2023-02-26T11:21:00;101492.78;;;3.65;70.16
12676;BME280;63820;65.654;21.944;2023-02-26T11:23:44;101479.78;;;3.05;72.16
12676;BME280;63820;65.654;21.944;2023-02-26T11:26:33;101487.56;;;4.62;66.09
12676;BME280;63820;65.654;21.944;2023-02-26T11:29:20;101476.47;;;4.34;66.15
12676;BME280;63820;65.654;21.944;2023-02-26T11:32:06;101459.16;;;4.82;63.93
12676;BME280;63820;65.654;21.944;2023-02-26T11:34:50;101469.56;;;3.26;69.99
12676;BME280;63820;65.654;21.944;2023-02-26T11:37:38;101466.97;;;3.29;72.73
12676;BME280;63820;65.654;21.944;2023-02-26T11:43:15;101454.47;;;2.14;84.31
12676;BME280;63820;65.654;21.944;2023-02-26T11:46:01;101471.91;;;1.52;94.09
12676;BME280;63820;65.654;21.944;2023-02-26T11:48:49;101469.47;;;1.66;96.02
12676;BME280;63820;65.654;21.944;2023-02-26T11:51:34;101470.56;;;1.90;93.52
12676;BME280;63820;65.654;21.944;2023-02-26T11:54:24;101464.41;;;1.70;97.87
12676;BME280;63820;65.654;21.944;2023-02-26T11:57:16;101474.38;;;2.47;87.62
12676;BME280;63820;65.654;21.944;2023-02-26T12:00:16;101471.66;;;2.26;92.12
12676;BME280;63820;65.654;21.944;2023-02-26T12:03:06;101471.41;;;1.88;91.80
12676;BME280;63820;65.654;21.944;2023-02-26T12:05:57;101463.84;;;2.05;89.49
12676;BME280;63820;65.654;21.944;2023-02-26T12:08:41;101464.34;;;1.64;98.37
12676;BME280;63820;65.654;21.944;2023-02-26T12:14:40;101453.16;;;2.85;84.44
12676;BME280;63820;65.654;21.944;2023-02-26T12:18:14;101448.13;;;3.31;77.94
12676;BME280;63820;65.654;21.944;2023-02-26T12:25:10;101454.88;;;2.86;82.62
12676;BME280;63820;65.654;21.944;2023-02-26T13:11:29;101420.19;;;-0.74;100.00
12676;BME280;63820;65.654;21.944;2023-02-26T13:14:44;101421.03;;;-0.73;100.00
12676;BME280;63820;65.654;21.944;2023-02-26T13:21:06;101404.88;;;-0.72;100.00
12676;BME280;63820;65.654;21.944;2023-02-26T13:24:06;101404.47;;;-0.47;100.00
12676;BME280;63820;65.654;21.944;2023-02-26T13:26:54;101412.47;;;-0.77;100.00
12676;BME280;63820;65.654;21.944;2023-02-26T13:29:54;101394.56;;;-0.77;100.00
12676;BME280;63820;65.654;21.944;2023-02-26T13:32:42;101377.13;;;-0.99;100.00
12676;BME280;63820;65.654;21.944;2023-02-26T13:35:35;101391.28;;;-0.70;100.00
12676;BME280;63820;65.654;21.944;2023-02-26T13:39:41;101407.63;;;-0.61;100.00
12676;BME280;63820;65.654;21.944;2023-02-26T13:48:07;101385.72;;;-0.47;100.00
12676;BME280;63820;65.654;21.944;2023-02-26T13:53:48;101375.50;;;-0.47;100.00
12676;BME280;63820;65.654;21.944;2023-02-26T14:05:09;101355.75;;;0.70;100.00
12676;BME280;63820;65.654;21.944;2023-02-26T14:11:04;101341.66;;;0.32;100.00
12676;BME280;63820;65.654;21.944;2023-02-26T14:14:16;101355.56;;;-0.14;100.00
12676;BME280;63820;65.654;21.944;2023-02-26T14:22:36;101355.09;;;-1.41;100.00
12676;BME280;63820;65.654;21.944;2023-02-26T14:25:47;101356.03;;;-1.37;100.00
12676;BME280;63820;65.654;21.944;2023-02-26T14:28:39;101350.66;;;-1.51;100.00
12676;BME280;63820;65.654;21.944;2023-02-26T14:31:25;101349.41;;;-1.70;100.00
12676;BME280;63820;65.654;21.944;2023-02-26T14:37:13;101349.22;;;-1.79;100.00
12676;BME280;63820;65.654;21.944;2023-02-26T14:40:16;101341.91;;;-1.62;100.00
12676;BME280;63820;65.654;21.944;2023-02-26T14:43:03;101351.50;;;-1.50;100.00
12676;BME280;63820;65.654;21.944;2023-02-26T14:45:49;101350.75;;;-1.46;100.00
12676;BME280;63820;65.654;21.944;2023-02-26T14:48:34;101352.25;;;-1.56;100.00
12676;BME280;63820;65.654;21.944;2023-02-26T14:51:25;101342.28;;;-1.44;100.00
12676;BME280;63820;65.654;21.944;2023-02-26T14:54:49;101344.16;;;-1.35;100.00
12676;BME280;63820;65.654;21.944;2023-02-26T14:57:45;101345.59;;;-1.48;100.00
12676;BME280;63820;65.654;21.944;2023-02-26T15:19:00;101314.59;;;-2.10;100.00
12676;BME280;63820;65.654;21.944;2023-02-26T15:22:56;101307.59;;;-2.18;100.00
12676;BME280;63820;65.654;21.944;2023-02-26T15:25:15;101305.78;;;-2.24;100.00
12676;BME280;63820;65.654;21.944;2023-02-26T15:28:03;101316.69;;;-2.29;100.00
12676;BME280;63820;65.654;21.944;2023-02-26T15:30:48;101317.31;;;-2.40;100.00
12676;BME280;63820;65.654;21.944;2023-02-26T15:33:33;101321.94;;;-2.59;100.00
12676;BME280;63820;65.654;21.944;2023-02-26T15:36:18;101310.81;;;-2.63;100.00
12676;BME280;63820;65.654;21.944;2023-02-26T15:39:06;101313.22;;;-2.69;100.00
12676;BME280;63820;65.654;21.944;2023-02-26T15:41:54;101306.22;;;-2.78;100.00
12676;BME280;63820;65.654;21.944;2023-02-26T15:44:38;101306.00;;;-2.87;100.00
12676;BME280;63820;65.654;21.944;2023-02-26T15:47:23;101306.66;;;-2.94;100.00
12676;BME280;63820;65.654;21.944;2023-02-26T15:50:13;101287.78;;;-3.02;100.00
12676;BME280;63820;65.654;21.944;2023-02-26T15:53:01;101284.25;;;-3.09;100.00
12676;BME280;63820;65.654;21.944;2023-02-26T15:55:49;101289.47;;;-3.03;100.00
12676;BME280;63820;65.654;21.944;2023-02-26T15:58:44;101290.22;;;-3.07;100.00
12676;BME280;63820;65.654;21.944;2023-02-26T16:01:29;101286.88;;;-3.06;100.00
12676;BME280;63820;65.654;21.944;2023-02-26T16:04:16;101292.16;;;-2.98;100.00
12676;BME280;63820;65.654;21.944;2023-02-26T16:07:01;101289.47;;;-3.03;100.00
12676;BME280;63820;65.654;21.944;2023-02-26T16:09:48;101286.38;;;-2.91;100.00
12676;BME280;63820;65.654;21.944;2023-02-26T16:12:39;101292.53;;;-2.83;100.00
12676;BME280;63820;65.654;21.944;2023-02-26T16:15:37;101305.03;;;-2.92;100.00
12676;BME280;63820;65.654;21.944;2023-02-26T16:18:24;101299.47;;;-2.76;100.00
12676;BME280;63820;65.654;21.944;2023-02-26T16:21:15;101296.25;;;-2.69;100.00
12676;BME280;63820;65.654;21.944;2023-02-26T16:24:05;101293.63;;;-2.72;100.00
12676;BME280;63820;65.654;21.944;2023-02-26T16:26:55;101298.59;;;-2.78;100.00
12676;BME280;63820;65.654;21.944;2023-02-26T16:29:49;101293.34;;;-2.84;100.00
12676;BME280;63820;65.654;21.944;2023-02-26T16:32:34;101290.03;;;-2.80;100.00
12676;BME280;63820;65.654;21.944;2023-02-26T16:35:21;101289.16;;;-2.82;100.00
12676;BME280;63820;65.654;21.944;2023-02-26T16:38:31;101278.88;;;-2.85;100.00
12676;BME280;63820;65.654;21.944;2023-02-26T16:41:21;101284.81;;;-2.86;100.00
12676;BME280;63820;65.654;21.944;2023-02-26T16:47:14;101289.00;;;-2.88;100.00
12676;BME280;63820;65.654;21.944;2023-02-26T16:50:00;101284.47;;;-3.00;100.00
12676;BME280;63820;65.654;21.944;2023-02-26T16:52:58;101288.84;;;-2.94;100.00
12676;BME280;63820;65.654;21.944;2023-02-26T16:55:50;101288.03;;;-2.93;100.00
12676;BME280;63820;65.654;21.944;2023-02-26T16:58:35;101282.84;;;-2.96;100.00
12676;BME280;63820;65.654;21.944;2023-02-26T17:01:20;101284.53;;;-2.97;100.00
12676;BME280;63820;65.654;21.944;2023-02-26T17:04:06;101290.50;;;-2.96;100.00
12676;BME280;63820;65.654;21.944;2023-02-26T17:06:51;101285.31;;;-2.99;100.00
12676;BME280;63820;65.654;21.944;2023-02-26T17:09:43;101280.47;;;-2.90;100.00
12676;BME280;63820;65.654;21.944;2023-02-26T17:12:41;101276.97;;;-2.93;100.00
12676;BME280;63820;65.654;21.944;2023-02-26T17:15:29;101264.34;;;-2.90;100.00
12676;BME280;63820;65.654;21.944;2023-02-26T17:18:15;101264.25;;;-2.93;100.00
12676;BME280;63820;65.654;21.944;2023-02-26T17:21:00;101265.25;;;-2.87;100.00
12676;BME280;63820;65.654;21.944;2023-02-26T17:23:48;101262.38;;;-3.01;100.00
12676;BME280;63820;65.654;21.944;2023-02-26T17:26:33;101265.78;;;-3.00;100.00
12676;BME280;63820;65.654;21.944;2023-02-26T17:29:21;101247.13;;;-3.01;100.00
12676;BME280;63820;65.654;21.944;2023-02-26T17:32:21;101251.28;;;-3.04;100.00